Terminal Aerodrome Forecast
Issued by NWS Upton, NY

Home | Current Version | Previous Version | Text Only | Print | Product List | Glossary On
Versions: 1 2 3 4 5 6 7 8 9 10 11 12 13 14 15 16 17 18 19 20 21 22 23 24
516
FTUS41 KOKX 141735
TAFJFK
TAF
KJFK 141735Z 1418/1524 31011KT P6SM FEW050
     FM142300 VRB05KT P6SM SCT250
     FM151400 10008KT 2SM -SN BKN012
     FM151900 10010KT 3/4SM -SN OVC008=

USA.gov is the U.S. government's official web portal to all federal, state and local government web resources and services.